Syracuse Hancock International Airport Syracuse US
ICAO: KSYR
IATA: SYR
Category: Large
Scheduled Services: Yes

Elevation: 421 ft
TransAlt. 18000 ft.

Airport Communications:
APP/DEP:126.125
ATIS:132.05
CLNC DEL:125.05
GND:121.7
ANG OPS:139.625
TWR:120.3
UNICOM:122.95

KSYR Zoom In..

If you have problems with the map follow the link
https://www.worldairports.se/pages/airport.php?
ICAO=KSYR

Runways:

(A) RW 10 length 9003 ft width 150 ft
ILS 109.90 / hdg 100

(B) RW 15 length 7500 ft width 150 ft
---- / hdg 147

(C) RW 28 length 9003 ft width 150 ft
ILS 109.90 / hdg 280

(D) RW 33 length 7500 ft width 150 ft
---- / hdg 327

Location; KSYR
Day. 19 / Time. 15.19 Zulu
* Altimeter: 29.73
* Temperature: 00° c. 32°f.
* Wind from: 260° Speed 20 kn with Gusts up to 25 kn.
Dewpoint: -03° c.
Visibility: 2 m.
Clouds: Few 1200 ft.
Clouds: Broken 1900 ft.
Clouds: Overcast 2600 ft.
Conditions: Light Snow.

KSYR 191519Z 26020G25KT 2 1/2SM -SN BLSN FEW012 BKN019 OVC026 00/M03 A2973 RMK AO2 PK WND 26028/1456 P0000 T00001033


Wind From 260°
Speed 20 kn.

 
 
jpsmedia worldairports.se 2020   terms of use